createdAt,value
2018-04-26T00:00:00.929Z,9.02
2018-04-26T00:02:28.489Z,9.00
2018-04-26T00:04:56.100Z,9.03
2018-04-26T00:07:23.657Z,8.92
2018-04-26T00:09:51.204Z,8.92
2018-04-26T00:12:18.968Z,9.16
2018-04-26T00:14:46.507Z,9.14
2018-04-26T00:17:14.324Z,9.02
2018-04-26T00:19:41.936Z,9.00
2018-04-26T00:22:09.680Z,8.83
2018-04-26T00:24:37.334Z,8.86
2018-04-26T00:27:04.904Z,8.95
2018-04-26T00:29:32.464Z,8.90
2018-04-26T00:32:00.022Z,8.63
2018-04-26T00:34:27.577Z,8.63
2018-04-26T00:36:55.124Z,8.63
2018-04-26T00:39:22.690Z,8.60
2018-04-26T00:41:50.485Z,8.53
2018-04-26T00:44:18.183Z,8.65
2018-04-26T00:46:45.717Z,8.49
2018-04-26T00:49:13.786Z,8.45
2018-04-26T00:51:53.062Z,8.47
2018-04-26T00:54:20.719Z,8.52
2018-04-26T00:56:48.497Z,8.42
2018-04-26T00:59:16.072Z,8.54
2018-04-26T01:01:43.638Z,8.54
2018-04-26T01:04:11.426Z,8.33
2018-04-26T01:06:39.000Z,8.34
2018-04-26T01:09:06.553Z,8.40
2018-04-26T01:11:34.233Z,8.37
2018-04-26T01:14:01.787Z,8.27
2018-04-26T01:16:29.333Z,8.13
2018-04-26T01:18:56.925Z,8.16
2018-04-26T01:21:24.520Z,8.13
2018-04-26T01:23:52.070Z,8.11
2018-04-26T01:26:19.606Z,8.12
2018-04-26T01:28:47.668Z,8.04
2018-04-26T01:31:15.218Z,7.98
2018-04-26T01:33:42.763Z,8.00
2018-04-26T01:36:10.355Z,7.91
2018-04-26T01:38:38.165Z,8.02
2018-04-26T01:41:05.730Z,8.07
2018-04-26T01:43:33.280Z,7.94
2018-04-26T01:46:01.014Z,7.90
2018-04-26T01:48:28.547Z,7.91
2018-04-26T01:50:56.073Z,8.01
2018-04-26T01:53:23.645Z,8.00
2018-04-26T01:55:51.182Z,8.09
2018-04-26T01:58:18.970Z,8.11
2018-04-26T02:00:46.530Z,8.14
2018-04-26T02:03:14.314Z,8.03
2018-04-26T02:05:41.916Z,7.99
2018-04-26T02:08:09.863Z,8.08
2018-04-26T02:10:37.540Z,8.04
2018-04-26T02:13:05.214Z,8.17
2018-04-26T02:15:32.802Z,8.20
2018-04-26T02:18:00.341Z,8.14
2018-04-26T02:20:28.363Z,8.10
2018-04-26T02:22:56.072Z,8.16
2018-04-26T02:25:23.624Z,8.12
2018-04-26T02:27:51.698Z,7.91
2018-04-26T02:30:19.455Z,8.02
2018-04-26T02:32:47.235Z,7.95
2018-04-26T02:35:14.817Z,8.02
2018-04-26T02:37:42.584Z,8.11
2018-04-26T02:40:10.466Z,7.95
2018-04-26T02:42:38.143Z,7.95
2018-04-26T02:45:05.710Z,7.81
2018-04-26T02:47:33.490Z,7.84
2018-04-26T02:50:01.041Z,7.88
2018-04-26T02:52:28.971Z,7.74
2018-04-26T02:54:56.520Z,7.90
2018-04-26T02:57:24.081Z,7.81
2018-04-26T02:59:51.655Z,7.85
2018-04-26T03:02:19.199Z,7.81
2018-04-26T03:04:46.911Z,7.83
2018-04-26T03:07:14.464Z,7.72
2018-04-26T03:09:42.266Z,7.71
2018-04-26T03:12:10.074Z,7.67
2018-04-26T03:14:37.649Z,7.83
2018-04-26T03:17:05.207Z,7.73
2018-04-26T03:19:32.964Z,7.61
2018-04-26T03:22:00.510Z,7.63
2018-04-26T03:24:28.098Z,7.65
2018-04-26T03:26:55.655Z,7.65
2018-04-26T03:29:23.702Z,7.73
2018-04-26T03:31:51.249Z,7.73
2018-04-26T03:34:18.813Z,7.70
2018-04-26T03:36:46.481Z,7.70
2018-04-26T03:39:14.018Z,7.74
2018-04-26T03:41:41.844Z,7.58
2018-04-26T03:44:09.424Z,7.61
2018-04-26T03:46:37.201Z,7.59
2018-04-26T03:49:04.994Z,7.57
2018-04-26T03:51:32.549Z,7.54
2018-04-26T03:54:00.132Z,7.46
2018-04-26T03:56:27.784Z,7.48
2018-04-26T03:58:55.437Z,7.40
2018-04-26T04:01:34.927Z,7.41
2018-04-26T04:04:14.524Z,7.35
2018-04-26T04:06:42.095Z,7.33
2018-04-26T04:09:09.647Z,7.28
2018-04-26T04:11:37.218Z,7.41
2018-04-26T04:14:04.877Z,7.39
2018-04-26T04:16:32.679Z,7.31
2018-04-26T04:19:00.224Z,7.44
2018-04-26T04:21:27.768Z,7.46
2018-04-26T04:23:55.537Z,7.45
2018-04-26T04:26:23.349Z,7.53
2018-04-26T04:28:51.193Z,7.41
2018-04-26T04:31:18.752Z,7.50
2018-04-26T04:33:46.346Z,7.42
2018-04-26T04:36:13.903Z,7.42
2018-04-26T04:38:41.447Z,7.50
2018-04-26T04:41:09.027Z,7.42
2018-04-26T04:43:36.583Z,7.49
2018-04-26T04:46:04.644Z,7.45
2018-04-26T04:48:32.258Z,7.39
2018-04-26T04:50:59.818Z,7.47
2018-04-26T04:53:27.392Z,7.49
2018-04-26T04:55:55.051Z,7.55
2018-04-26T04:58:22.658Z,7.54
2018-04-26T05:00:50.204Z,7.64
2018-04-26T05:03:17.751Z,7.43
2018-04-26T05:05:45.471Z,7.41
2018-04-26T05:08:13.020Z,7.48
2018-04-26T05:10:40.561Z,7.44
2018-04-26T05:13:08.152Z,7.43
2018-04-26T05:15:35.939Z,7.49
2018-04-26T05:18:03.528Z,7.45
2018-04-26T05:20:31.104Z,7.62
2018-04-26T05:22:58.901Z,7.36
2018-04-26T05:25:26.439Z,7.37
2018-04-26T05:27:53.999Z,7.27
2018-04-26T05:30:21.579Z,7.40
2018-04-26T05:32:49.158Z,7.40
2018-04-26T05:35:16.732Z,7.40
2018-04-26T05:37:44.461Z,7.53
2018-04-26T05:40:12.025Z,7.47
2018-04-26T05:42:39.757Z,7.59
2018-04-26T05:45:07.334Z,7.56
2018-04-26T05:47:34.903Z,7.70
2018-04-26T05:50:02.530Z,7.58
2018-04-26T05:52:30.082Z,7.83
2018-04-26T05:54:57.639Z,7.93
2018-04-26T05:57:25.420Z,7.83
2018-04-26T05:59:52.975Z,7.69
2018-04-26T06:02:20.536Z,7.78
2018-04-26T06:04:48.323Z,7.64
2018-04-26T06:07:15.911Z,7.74
2018-04-26T06:09:43.472Z,7.85
2018-04-26T06:12:11.018Z,7.72
2018-04-26T06:14:38.611Z,7.71
2018-04-26T06:17:06.436Z,7.72
2018-04-26T06:19:34.271Z,7.71
2018-04-26T06:22:01.815Z,7.72
2018-04-26T06:24:29.364Z,7.75
2018-04-26T06:26:56.936Z,7.97
2018-04-26T06:29:24.491Z,7.80
2018-04-26T06:31:52.099Z,7.73
2018-04-26T06:34:19.637Z,7.92
2018-04-26T06:36:47.296Z,7.94
2018-04-26T06:39:15.027Z,7.90
2018-04-26T06:41:42.581Z,7.97
2018-04-26T06:44:10.884Z,8.13
2018-04-26T06:46:38.441Z,8.12
2018-04-26T06:49:06.172Z,8.13
2018-04-26T06:51:33.756Z,8.07
2018-04-26T06:54:01.323Z,8.38
2018-04-26T06:56:29.297Z,8.65
2018-04-26T06:58:56.852Z,8.99
2018-04-26T07:01:24.381Z,8.96
2018-04-26T07:03:52.427Z,8.85
2018-04-26T07:06:19.956Z,9.27
2018-04-26T07:08:47.487Z,9.59
2018-04-26T07:11:15.038Z,9.76
2018-04-26T07:13:42.555Z,9.39
2018-04-26T07:16:10.101Z,9.69
2018-04-26T07:18:37.764Z,9.70
2018-04-26T07:21:05.289Z,9.75
2018-04-26T07:23:32.899Z,10.21
2018-04-26T07:26:00.832Z,9.89
2018-04-26T07:28:28.352Z,9.67
2018-04-26T07:30:55.896Z,9.19
2018-04-26T07:33:23.423Z,9.11
2018-04-26T07:35:50.970Z,9.19
2018-04-26T07:38:18.486Z,9.14
2018-04-26T07:40:46.034Z,9.09
2018-04-26T07:43:13.549Z,9.09
2018-04-26T07:45:41.111Z,9.72
2018-04-26T07:48:08.634Z,9.53
2018-04-26T07:50:36.202Z,9.35
2018-04-26T07:53:03.789Z,9.33
2018-04-26T07:55:31.304Z,9.58
2018-04-26T07:57:58.825Z,9.90
2018-04-26T08:00:26.375Z,9.91
2018-04-26T08:02:53.896Z,10.20
2018-04-26T08:05:21.568Z,10.06
2018-04-26T08:07:49.117Z,10.16
2018-04-26T08:10:16.635Z,10.49
2018-04-26T08:12:44.579Z,10.11
2018-04-26T08:15:12.109Z,10.43
2018-04-26T08:17:39.619Z,9.99
2018-04-26T08:20:07.176Z,10.33
2018-04-26T08:22:34.701Z,10.36
2018-04-26T08:25:02.322Z,10.52
2018-04-26T08:27:29.808Z,11.06
2018-04-26T08:29:57.358Z,10.97
2018-04-26T08:32:24.898Z,10.75
2018-04-26T08:34:52.419Z,10.53
2018-04-26T08:37:19.998Z,10.19
2018-04-26T08:39:47.509Z,10.80
2018-04-26T08:42:15.035Z,10.79
2018-04-26T08:44:42.930Z,10.98
2018-04-26T08:47:10.457Z,11.09
2018-04-26T08:49:38.041Z,11.35
2018-04-26T08:52:05.572Z,11.03
2018-04-26T08:54:33.085Z,11.86
2018-04-26T08:57:00.750Z,11.45
2018-04-26T08:59:28.280Z,11.67
2018-04-26T09:01:55.791Z,12.02
2018-04-26T09:04:23.335Z,11.54
2018-04-26T09:06:50.923Z,11.10
2018-04-26T09:09:18.453Z,11.71
2018-04-26T09:11:45.978Z,11.69
2018-04-26T09:14:13.516Z,11.56
2018-04-26T09:16:41.056Z,11.36
2018-04-26T09:19:08.748Z,11.48
2018-04-26T09:21:36.279Z,11.70
2018-04-26T09:24:03.795Z,11.18
2018-04-26T09:26:31.664Z,11.07
2018-04-26T09:28:59.186Z,11.60
2018-04-26T09:31:26.719Z,11.30
2018-04-26T09:33:54.282Z,11.02
2018-04-26T09:36:21.803Z,10.90
2018-04-26T09:38:49.342Z,10.98
2018-04-26T09:41:17.100Z,10.37
2018-04-26T09:43:44.630Z,10.59
2018-04-26T09:46:12.151Z,10.31
2018-04-26T09:48:39.726Z,10.63
2018-04-26T09:51:07.554Z,11.28
2018-04-26T09:53:35.092Z,11.12
2018-04-26T09:56:02.630Z,11.49
2018-04-26T09:58:30.361Z,12.04
2018-04-26T10:00:57.907Z,10.93
2018-04-26T10:03:27.263Z,10.94
2018-04-26T10:05:57.672Z,10.82
2018-04-26T10:08:25.192Z,10.95
2018-04-26T10:10:52.715Z,10.76
2018-04-26T10:13:20.255Z,10.91
2018-04-26T10:15:47.804Z,10.94
2018-04-26T10:18:15.330Z,10.33
2018-04-26T10:20:42.979Z,9.15
2018-04-26T10:23:10.723Z,8.94
2018-04-26T10:25:38.238Z,9.07
2018-04-26T10:28:05.771Z,9.48
2018-04-26T10:30:33.295Z,9.19
2018-04-26T10:33:00.897Z,9.68
2018-04-26T10:35:28.490Z,9.65
2018-04-26T10:37:55.965Z,10.28
2018-04-26T10:40:23.498Z,10.75
2018-04-26T10:42:51.067Z,10.87
2018-04-26T10:45:18.590Z,11.50
2018-04-26T10:47:46.104Z,11.24
2018-04-26T10:50:13.660Z,11.80
2018-04-26T10:52:41.177Z,11.80
2018-04-26T10:55:08.724Z,11.79
2018-04-26T10:57:36.385Z,11.69
2018-04-26T11:00:04.017Z,11.51
2018-04-26T11:02:31.498Z,11.47
2018-04-26T11:04:59.056Z,11.54
2018-04-26T11:07:26.599Z,11.65
2018-04-26T11:09:54.114Z,11.81
2018-04-26T11:12:21.879Z,11.94
2018-04-26T11:14:49.390Z,12.26
2018-04-26T11:17:16.936Z,12.67
2018-04-26T11:19:44.495Z,12.82
2018-04-26T11:22:12.001Z,12.72
2018-04-26T11:24:39.568Z,12.91
2018-04-26T11:27:07.079Z,12.96
2018-04-26T11:29:34.708Z,12.62
2018-04-26T11:32:02.219Z,13.53
2018-04-26T11:34:29.742Z,12.54
2018-04-26T11:36:57.396Z,13.22
2018-04-26T11:39:24.927Z,13.19
2018-04-26T11:41:52.476Z,12.89
2018-04-26T11:44:20.004Z,13.05
2018-04-26T11:46:47.820Z,13.11
2018-04-26T11:49:15.294Z,12.78
2018-04-26T11:51:42.807Z,13.07
2018-04-26T11:54:10.345Z,13.15
2018-04-26T11:56:37.877Z,12.75
2018-04-26T11:59:05.425Z,12.56
2018-04-26T12:01:32.987Z,12.55
2018-04-26T12:04:00.538Z,12.38
2018-04-26T12:06:28.046Z,12.49
2018-04-26T12:08:55.600Z,12.24
2018-04-26T12:11:23.135Z,12.97
2018-04-26T12:13:51.049Z,12.84
2018-04-26T12:16:18.567Z,12.89
2018-04-26T12:18:46.097Z,12.93
2018-04-26T12:21:13.639Z,12.97
2018-04-26T12:23:41.155Z,12.87
2018-04-26T12:26:08.694Z,13.00
2018-04-26T12:28:36.211Z,13.24
2018-04-26T12:31:03.783Z,13.05
2018-04-26T12:33:31.317Z,13.58
2018-04-26T12:35:58.837Z,13.64
2018-04-26T12:38:26.386Z,13.31
2018-04-26T12:40:53.930Z,12.49
2018-04-26T12:43:21.468Z,12.91
2018-04-26T12:45:49.007Z,13.34
2018-04-26T12:48:16.755Z,13.41
2018-04-26T12:50:44.287Z,13.02
2018-04-26T12:53:11.806Z,13.09
2018-04-26T12:55:39.407Z,12.57
2018-04-26T12:58:07.004Z,12.45
2018-04-26T13:00:34.507Z,12.72
2018-04-26T13:03:02.078Z,13.10
2018-04-26T13:05:29.981Z,13.53
2018-04-26T13:07:57.504Z,14.26
2018-04-26T13:10:25.038Z,13.69
2018-04-26T13:12:52.759Z,13.19
2018-04-26T13:15:20.244Z,12.85
2018-04-26T13:17:47.766Z,12.62
2018-04-26T13:20:15.518Z,13.38
2018-04-26T13:22:43.034Z,13.20
2018-04-26T13:25:10.574Z,13.04
2018-04-26T13:27:38.126Z,13.42
2018-04-26T13:30:05.654Z,13.84
2018-04-26T13:32:33.597Z,13.93
2018-04-26T13:35:01.114Z,13.75
2018-04-26T13:37:28.630Z,13.71
2018-04-26T13:39:56.298Z,13.70
2018-04-26T13:42:23.833Z,13.76
2018-04-26T13:44:51.367Z,13.06
2018-04-26T13:47:18.911Z,13.01
2018-04-26T13:49:46.426Z,13.56
2018-04-26T13:52:14.019Z,14.04
2018-04-26T13:54:41.548Z,14.26
2018-04-26T13:57:09.071Z,13.92
2018-04-26T13:59:36.631Z,13.55
2018-04-26T14:02:04.349Z,14.00
2018-04-26T14:04:31.867Z,13.68
2018-04-26T14:06:59.403Z,13.15
2018-04-26T14:09:27.086Z,13.08
2018-04-26T14:11:54.607Z,13.25
2018-04-26T14:14:22.131Z,13.22
2018-04-26T14:16:49.796Z,13.74
2018-04-26T14:19:17.323Z,13.25
2018-04-26T14:21:44.830Z,13.26
2018-04-26T14:24:12.376Z,13.70
2018-04-26T14:26:39.886Z,13.38
2018-04-26T14:29:07.427Z,13.21
2018-04-26T14:31:34.940Z,13.47
2018-04-26T14:34:02.599Z,13.40
2018-04-26T14:36:30.107Z,13.82
2018-04-26T14:38:57.624Z,13.31
2018-04-26T14:41:25.172Z,13.33
2018-04-26T14:43:52.690Z,13.28
2018-04-26T14:46:20.370Z,13.21
2018-04-26T14:48:47.891Z,13.60
2018-04-26T14:51:15.405Z,14.05
2018-04-26T14:53:43.088Z,13.55
2018-04-26T14:56:10.603Z,13.60
2018-04-26T14:58:38.117Z,13.24
2018-04-26T15:01:05.697Z,13.58
2018-04-26T15:03:33.207Z,12.80
2018-04-26T15:06:00.987Z,13.01
2018-04-26T15:08:28.547Z,13.59
2018-04-26T15:10:56.066Z,13.81
2018-04-26T15:13:23.637Z,13.44
2018-04-26T15:15:51.154Z,13.56
2018-04-26T15:18:18.688Z,13.42
2018-04-26T15:20:46.227Z,13.51
2018-04-26T15:23:13.744Z,13.06
2018-04-26T15:25:41.438Z,13.04
2018-04-26T15:28:09.007Z,13.16
2018-04-26T15:30:36.568Z,13.24
2018-04-26T15:33:04.134Z,13.28
2018-04-26T15:35:32.147Z,13.31
2018-04-26T15:37:59.663Z,13.92
2018-04-26T15:40:27.277Z,13.55
2018-04-26T15:42:55.270Z,13.34
2018-04-26T15:45:22.787Z,13.42
2018-04-26T15:47:50.310Z,13.84
2018-04-26T15:50:29.847Z,13.66
2018-04-26T15:53:09.244Z,13.28
2018-04-26T15:55:48.983Z,13.31
2018-04-26T16:05:24.307Z,13.02
2018-04-26T16:08:09.923Z,12.86
2018-04-26T16:10:54.968Z,13.44
2018-04-26T16:13:40.080Z,13.49
2018-04-26T16:16:19.999Z,13.26
2018-04-26T16:18:56.554Z,13.52
2018-04-26T16:21:35.998Z,12.91
2018-04-26T16:24:34.020Z,13.10
2018-04-26T16:27:19.239Z,13.28
2018-04-26T16:29:58.696Z,12.50
2018-04-26T16:32:38.098Z,12.81
2018-04-26T16:35:20.691Z,12.82
2018-04-26T16:38:05.765Z,12.54
2018-04-26T16:40:33.296Z,12.74
2018-04-26T16:43:00.959Z,12.86
2018-04-26T16:45:28.440Z,12.45
2018-04-26T16:47:55.976Z,12.75
2018-04-26T16:50:23.553Z,12.83
2018-04-26T16:52:51.068Z,12.73
2018-04-26T16:55:18.604Z,12.25
2018-04-26T16:57:46.154Z,12.40
2018-04-26T17:00:13.731Z,12.54
2018-04-26T17:02:41.271Z,12.76
2018-04-26T17:05:08.822Z,12.61
2018-04-26T17:07:36.343Z,12.55
2018-04-26T17:10:04.433Z,12.29
2018-04-26T17:12:31.947Z,12.33
2018-04-26T17:14:59.469Z,12.49
2018-04-26T17:17:27.037Z,12.55
2018-04-26T17:19:54.561Z,12.34
2018-04-26T17:22:22.091Z,12.25
2018-04-26T17:24:49.641Z,11.91
2018-04-26T17:27:17.196Z,11.62
2018-04-26T17:29:44.759Z,11.59
2018-04-26T17:32:12.278Z,11.58
2018-04-26T17:34:39.791Z,11.48
2018-04-26T17:37:07.541Z,11.38
2018-04-26T17:39:35.058Z,11.28
2018-04-26T17:42:02.569Z,11.19
2018-04-26T17:44:30.415Z,11.07
2018-04-26T17:46:57.929Z,11.21
2018-04-26T17:49:25.450Z,11.18
2018-04-26T17:51:52.987Z,11.10
2018-04-26T17:54:20.499Z,10.94
2018-04-26T17:56:48.082Z,10.90
2018-04-26T17:59:15.605Z,10.88
2018-04-26T18:01:43.131Z,10.78
2018-04-26T18:04:10.843Z,10.76
2018-04-26T18:06:38.360Z,10.73
2018-04-26T18:09:05.894Z,10.64
2018-04-26T18:11:33.576Z,10.62
2018-04-26T18:14:01.127Z,10.67
2018-04-26T18:16:28.640Z,10.41
2018-04-26T18:18:56.174Z,10.49
2018-04-26T18:21:23.729Z,10.43
2018-04-26T18:23:51.303Z,10.44
2018-04-26T18:26:18.951Z,10.35
2018-04-26T18:28:46.491Z,10.18
2018-04-26T18:31:14.045Z,10.20
2018-04-26T18:33:41.610Z,9.94
2018-04-26T18:36:09.127Z,9.73
2018-04-26T18:38:36.662Z,9.73
2018-04-26T18:41:04.216Z,9.58
2018-04-26T18:43:32.510Z,9.64
2018-04-26T18:46:00.091Z,9.46
2018-04-26T18:48:27.595Z,9.20
2018-04-26T18:50:55.113Z,9.14
2018-04-26T18:53:22.674Z,9.12
2018-04-26T18:55:50.208Z,9.00
2018-04-26T18:58:18.488Z,8.68
2018-04-26T19:00:46.081Z,8.44
2018-04-26T19:03:13.574Z,8.29
2018-04-26T19:05:41.115Z,8.29
2018-04-26T19:08:08.696Z,8.12
2018-04-26T19:10:36.212Z,8.01
2018-04-26T19:13:03.723Z,7.88
2018-04-26T19:15:31.335Z,7.79
2018-04-26T19:17:58.867Z,7.79
2018-04-26T19:20:26.405Z,7.65
2018-04-26T19:22:53.962Z,7.59
2018-04-26T19:25:21.483Z,7.53
2018-04-26T19:27:49.076Z,7.45
2018-04-26T19:30:16.846Z,7.44
2018-04-26T19:32:44.376Z,7.38
2018-04-26T19:35:12.086Z,7.27
2018-04-26T19:37:39.627Z,7.25
2018-04-26T19:40:07.153Z,7.24
2018-04-26T19:42:34.723Z,7.20
2018-04-26T19:45:02.277Z,7.12
2018-04-26T19:47:29.799Z,7.13
2018-04-26T19:49:57.507Z,7.03
2018-04-26T19:52:25.301Z,7.01
2018-04-26T19:54:52.783Z,7.01
2018-04-26T19:57:20.323Z,6.94
2018-04-26T19:59:47.868Z,6.82
2018-04-26T20:02:15.409Z,6.87
2018-04-26T20:04:42.970Z,6.79
2018-04-26T20:07:10.740Z,6.76
2018-04-26T20:09:38.513Z,6.71
2018-04-26T20:12:06.087Z,6.73
2018-04-26T20:14:33.599Z,6.66
2018-04-26T20:17:01.649Z,6.68
2018-04-26T20:19:29.172Z,6.67
2018-04-26T20:21:56.695Z,6.59
2018-04-26T20:24:24.267Z,6.56
2018-04-26T20:26:51.819Z,6.57
2018-04-26T20:29:19.363Z,6.66
2018-04-26T20:31:46.900Z,6.71
2018-04-26T20:34:14.436Z,6.67
2018-04-26T20:36:42.327Z,6.77
2018-04-26T20:39:10.065Z,6.75
2018-04-26T20:41:49.391Z,6.72
2018-04-26T20:44:28.749Z,6.80
2018-04-26T20:46:56.263Z,6.66
2018-04-26T20:49:23.966Z,6.55
2018-04-26T20:51:51.495Z,6.54
2018-04-26T20:54:19.005Z,6.51
2018-04-26T20:56:46.552Z,6.62
2018-04-26T20:59:14.061Z,6.55
2018-04-26T21:01:41.594Z,6.44
2018-04-26T21:04:09.121Z,6.37
2018-04-26T21:06:36.857Z,6.32
2018-04-26T21:09:05.159Z,6.28
2018-04-26T21:11:32.688Z,6.19
2018-04-26T21:14:00.232Z,6.31
2018-04-26T21:16:27.752Z,6.36
2018-04-26T21:18:55.447Z,6.45
2018-04-26T21:21:22.962Z,6.50
2018-04-26T21:23:50.509Z,6.58
2018-04-26T21:26:18.097Z,6.59
2018-04-26T21:28:45.624Z,6.62
2018-04-26T21:31:13.148Z,6.54
2018-04-26T21:33:40.682Z,6.72
2018-04-26T21:36:08.197Z,6.60
2018-04-26T21:38:35.940Z,6.52
2018-04-26T21:41:03.471Z,6.39
2018-04-26T21:43:30.993Z,6.32
2018-04-26T21:45:58.547Z,6.29
2018-04-26T21:48:26.069Z,6.36
2018-04-26T21:50:59.139Z,6.11
2018-04-26T21:53:32.330Z,6.02
2018-04-26T21:56:05.432Z,5.83
2018-04-26T21:58:38.634Z,5.84
2018-04-26T22:01:11.863Z,5.94
2018-04-26T22:06:47.684Z,5.91
2018-04-26T22:09:15.270Z,5.98
2018-04-26T22:11:42.766Z,6.00
2018-04-26T22:14:10.311Z,5.99
2018-04-26T22:16:37.826Z,6.04
2018-04-26T22:19:05.335Z,6.21
2018-04-26T22:21:32.880Z,6.00
2018-04-26T22:24:00.417Z,6.05
2018-04-26T22:26:27.933Z,6.32
2018-04-26T22:28:55.595Z,6.34
2018-04-26T22:31:23.112Z,6.37
2018-04-26T22:33:50.628Z,6.28
2018-04-26T22:36:18.315Z,6.28
2018-04-26T22:38:45.831Z,6.20
2018-04-26T22:41:13.356Z,6.10
2018-04-26T22:43:40.923Z,6.12
2018-04-26T22:46:08.435Z,6.13
2018-04-26T22:48:35.953Z,6.20
2018-04-26T22:51:03.491Z,6.26
2018-04-26T22:53:31.023Z,6.37
2018-04-26T22:55:58.534Z,6.57
2018-04-26T22:58:26.131Z,6.65
2018-04-26T23:00:53.647Z,6.68
2018-04-26T23:03:21.187Z,6.58
2018-04-26T23:05:48.891Z,6.60
2018-04-26T23:08:16.533Z,6.50
2018-04-26T23:10:44.051Z,6.34
2018-04-26T23:13:11.592Z,6.33
2018-04-26T23:15:39.106Z,6.14
2018-04-26T23:18:06.632Z,6.06
2018-04-26T23:20:34.174Z,6.12
2018-04-26T23:23:01.694Z,5.95
2018-04-26T23:25:29.260Z,5.65
2018-04-26T23:27:56.790Z,5.75
2018-04-26T23:30:24.313Z,5.80
2018-04-26T23:32:52.204Z,5.59
2018-04-26T23:35:19.727Z,5.64
2018-04-26T23:37:47.260Z,5.59
2018-04-26T23:40:14.815Z,5.63
2018-04-26T23:42:42.361Z,5.40
2018-04-26T23:45:09.899Z,5.29
2018-04-26T23:47:37.405Z,5.25
2018-04-26T23:50:04.985Z,5.32
2018-04-26T23:52:32.511Z,5.33
2018-04-26T23:55:00.058Z,5.18
2018-04-26T23:57:27.626Z,5.38
2018-04-26T23:59:55.150Z,5.12
